sensor_id;sensor_type;location;lat;lon;timestamp;P1;durP1;ratioP1;P2;durP2;ratioP2
51995;SDS011;38010;53.264;6.592;2023-02-11T00:01:25;2.67;;;1.40;;
51995;SDS011;38010;53.264;6.592;2023-02-11T00:03:53;3.38;;;1.30;;
51995;SDS011;38010;53.264;6.592;2023-02-11T00:06:19;3.17;;;1.50;;
51995;SDS011;38010;53.264;6.592;2023-02-11T00:08:47;2.92;;;1.08;;
51995;SDS011;38010;53.264;6.592;2023-02-11T00:11:14;2.88;;;1.35;;
51995;SDS011;38010;53.264;6.592;2023-02-11T00:13:41;2.25;;;1.10;;
51995;SDS011;38010;53.264;6.592;2023-02-11T00:16:09;3.17;;;1.17;;
51995;SDS011;38010;53.264;6.592;2023-02-11T00:18:36;2.22;;;1.10;;
51995;SDS011;38010;53.264;6.592;2023-02-11T00:21:06;4.72;;;1.40;;
51995;SDS011;38010;53.264;6.592;2023-02-11T00:23:33;2.80;;;1.45;;
51995;SDS011;38010;53.264;6.592;2023-02-11T00:25:59;2.97;;;1.30;;
51995;SDS011;38010;53.264;6.592;2023-02-11T00:28:25;2.45;;;1.13;;
51995;SDS011;38010;53.264;6.592;2023-02-11T00:30:54;1.80;;;1.00;;
51995;SDS011;38010;53.264;6.592;2023-02-11T00:33:20;3.50;;;1.20;;
51995;SDS011;38010;53.264;6.592;2023-02-11T00:35:46;1.85;;;1.00;;
51995;SDS011;38010;53.264;6.592;2023-02-11T00:38:12;3.65;;;1.50;;
51995;SDS011;38010;53.264;6.592;2023-02-11T00:40:37;2.22;;;0.98;;
51995;SDS011;38010;53.264;6.592;2023-02-11T00:43:03;2.33;;;1.27;;
51995;SDS011;38010;53.264;6.592;2023-02-11T00:45:29;2.50;;;1.20;;
51995;SDS011;38010;53.264;6.592;2023-02-11T00:47:55;2.72;;;1.10;;
51995;SDS011;38010;53.264;6.592;2023-02-11T00:50:21;1.95;;;1.15;;
51995;SDS011;38010;53.264;6.592;2023-02-11T00:52:47;2.25;;;1.45;;
51995;SDS011;38010;53.264;6.592;2023-02-11T00:55:13;2.55;;;1.20;;
51995;SDS011;38010;53.264;6.592;2023-02-11T00:57:39;2.45;;;1.20;;
51995;SDS011;38010;53.264;6.592;2023-02-11T01:00:05;2.10;;;1.15;;
51995;SDS011;38010;53.264;6.592;2023-02-11T01:02:32;2.97;;;1.20;;
51995;SDS011;38010;53.264;6.592;2023-02-11T01:04:58;1.50;;;1.08;;
51995;SDS011;38010;53.264;6.592;2023-02-11T01:07:24;2.60;;;1.25;;
51995;SDS011;38010;53.264;6.592;2023-02-11T01:09:50;2.38;;;1.00;;
51995;SDS011;38010;53.264;6.592;2023-02-11T01:12:16;3.20;;;1.30;;
51995;SDS011;38010;53.264;6.592;2023-02-11T01:14:42;2.42;;;1.25;;
51995;SDS011;38010;53.264;6.592;2023-02-11T01:17:08;3.03;;;1.48;;
51995;SDS011;38010;53.264;6.592;2023-02-11T01:19:35;2.47;;;1.00;;
51995;SDS011;38010;53.264;6.592;2023-02-11T01:22:02;1.98;;;1.17;;
51995;SDS011;38010;53.264;6.592;2023-02-11T01:24:27;2.60;;;1.20;;
51995;SDS011;38010;53.264;6.592;2023-02-11T01:26:54;2.00;;;1.23;;
51995;SDS011;38010;53.264;6.592;2023-02-11T01:29:20;2.38;;;1.27;;
51995;SDS011;38010;53.264;6.592;2023-02-11T01:31:45;2.85;;;1.20;;
51995;SDS011;38010;53.264;6.592;2023-02-11T01:34:11;2.33;;;1.20;;
51995;SDS011;38010;53.264;6.592;2023-02-11T01:36:38;2.08;;;1.20;;
51995;SDS011;38010;53.264;6.592;2023-02-11T01:39:04;4.82;;;1.65;;
51995;SDS011;38010;53.264;6.592;2023-02-11T01:41:30;2.97;;;1.30;;
51995;SDS011;38010;53.264;6.592;2023-02-11T01:43:56;3.15;;;1.52;;
51995;SDS011;38010;53.264;6.592;2023-02-11T01:48:49;3.35;;;1.35;;
51995;SDS011;38010;53.264;6.592;2023-02-11T01:51:26;2.55;;;1.00;;
51995;SDS011;38010;53.264;6.592;2023-02-11T01:54:00;2.72;;;1.40;;
51995;SDS011;38010;53.264;6.592;2023-02-11T01:56:47;2.22;;;1.10;;
51995;SDS011;38010;53.264;6.592;2023-02-11T01:59:36;1.75;;;1.02;;
51995;SDS011;38010;53.264;6.592;2023-02-11T02:02:11;2.50;;;1.23;;
51995;SDS011;38010;53.264;6.592;2023-02-11T02:04:48;1.70;;;1.10;;
51995;SDS011;38010;53.264;6.592;2023-02-11T02:07:24;2.38;;;1.10;;
51995;SDS011;38010;53.264;6.592;2023-02-11T02:09:57;2.25;;;1.13;;
51995;SDS011;38010;53.264;6.592;2023-02-11T02:12:28;2.10;;;1.17;;
51995;SDS011;38010;53.264;6.592;2023-02-11T02:15:09;1.30;;;0.98;;
51995;SDS011;38010;53.264;6.592;2023-02-11T02:17:49;2.20;;;1.23;;
51995;SDS011;38010;53.264;6.592;2023-02-11T02:20:26;2.03;;;1.20;;
51995;SDS011;38010;53.264;6.592;2023-02-11T02:34:22;2.95;;;1.63;;
51995;SDS011;38010;53.264;6.592;2023-02-11T02:37:04;2.28;;;1.10;;
51995;SDS011;38010;53.264;6.592;2023-02-11T02:39:36;2.38;;;1.40;;
51995;SDS011;38010;53.264;6.592;2023-02-11T02:42:03;3.05;;;1.63;;
51995;SDS011;38010;53.264;6.592;2023-02-11T02:44:29;2.20;;;1.10;;
51995;SDS011;38010;53.264;6.592;2023-02-11T02:46:55;3.08;;;1.45;;
51995;SDS011;38010;53.264;6.592;2023-02-11T02:49:21;2.67;;;1.20;;
51995;SDS011;38010;53.264;6.592;2023-02-11T02:51:54;2.88;;;1.30;;
51995;SDS011;38010;53.264;6.592;2023-02-11T02:57:33;1.85;;;1.10;;
51995;SDS011;38010;53.264;6.592;2023-02-11T03:11:08;2.08;;;1.25;;
51995;SDS011;38010;53.264;6.592;2023-02-11T03:13:36;3.47;;;1.45;;
51995;SDS011;38010;53.264;6.592;2023-02-11T03:16:13;2.80;;;1.40;;
51995;SDS011;38010;53.264;6.592;2023-02-11T03:18:43;2.72;;;1.50;;
51995;SDS011;38010;53.264;6.592;2023-02-11T03:21:24;3.00;;;1.10;;
51995;SDS011;38010;53.264;6.592;2023-02-11T03:23:52;3.17;;;1.20;;
51995;SDS011;38010;53.264;6.592;2023-02-11T03:26:37;2.80;;;1.30;;
51995;SDS011;38010;53.264;6.592;2023-02-11T03:37:13;2.10;;;1.00;;
51995;SDS011;38010;53.264;6.592;2023-02-11T03:39:47;2.40;;;1.00;;
51995;SDS011;38010;53.264;6.592;2023-02-11T03:42:20;2.17;;;1.30;;
51995;SDS011;38010;53.264;6.592;2023-02-11T03:44:52;2.30;;;1.35;;
51995;SDS011;38010;53.264;6.592;2023-02-11T03:47:25;2.83;;;1.20;;
51995;SDS011;38010;53.264;6.592;2023-02-11T03:49:52;1.67;;;1.20;;
51995;SDS011;38010;53.264;6.592;2023-02-11T03:52:21;1.83;;;1.20;;
51995;SDS011;38010;53.264;6.592;2023-02-11T03:54:50;2.95;;;1.40;;
51995;SDS011;38010;53.264;6.592;2023-02-11T03:57:19;2.25;;;1.17;;
51995;SDS011;38010;53.264;6.592;2023-02-11T03:59:52;1.90;;;1.17;;
51995;SDS011;38010;53.264;6.592;2023-02-11T04:02:20;1.80;;;1.00;;
51995;SDS011;38010;53.264;6.592;2023-02-11T04:04:48;2.22;;;1.17;;
51995;SDS011;38010;53.264;6.592;2023-02-11T04:07:14;1.95;;;1.00;;
51995;SDS011;38010;53.264;6.592;2023-02-11T04:09:39;1.40;;;1.00;;
51995;SDS011;38010;53.264;6.592;2023-02-11T04:12:05;2.25;;;1.30;;
51995;SDS011;38010;53.264;6.592;2023-02-11T04:14:31;2.08;;;1.20;;
51995;SDS011;38010;53.264;6.592;2023-02-11T04:16:57;3.42;;;1.48;;
51995;SDS011;38010;53.264;6.592;2023-02-11T04:19:22;2.17;;;1.10;;
51995;SDS011;38010;53.264;6.592;2023-02-11T04:21:48;1.10;;;0.90;;
51995;SDS011;38010;53.264;6.592;2023-02-11T04:24:14;2.22;;;1.10;;
51995;SDS011;38010;53.264;6.592;2023-02-11T04:26:39;2.10;;;1.10;;
51995;SDS011;38010;53.264;6.592;2023-02-11T04:29:05;2.35;;;1.10;;
51995;SDS011;38010;53.264;6.592;2023-02-11T04:31:31;2.38;;;1.17;;
51995;SDS011;38010;53.264;6.592;2023-02-11T04:33:56;1.50;;;0.90;;
51995;SDS011;38010;53.264;6.592;2023-02-11T04:36:22;1.70;;;1.00;;
51995;SDS011;38010;53.264;6.592;2023-02-11T04:38:48;1.90;;;1.02;;
51995;SDS011;38010;53.264;6.592;2023-02-11T04:41:13;1.75;;;1.08;;
51995;SDS011;38010;53.264;6.592;2023-02-11T04:43:39;2.35;;;1.10;;
51995;SDS011;38010;53.264;6.592;2023-02-11T04:46:05;1.60;;;1.02;;
51995;SDS011;38010;53.264;6.592;2023-02-11T04:48:30;2.17;;;1.15;;
51995;SDS011;38010;53.264;6.592;2023-02-11T04:50:56;3.28;;;1.27;;
51995;SDS011;38010;53.264;6.592;2023-02-11T04:53:22;2.00;;;1.00;;
51995;SDS011;38010;53.264;6.592;2023-02-11T04:55:48;2.95;;;1.05;;
51995;SDS011;38010;53.264;6.592;2023-02-11T04:58:17;1.58;;;0.93;;
51995;SDS011;38010;53.264;6.592;2023-02-11T05:00:44;2.08;;;1.23;;
51995;SDS011;38010;53.264;6.592;2023-02-11T05:03:10;1.65;;;1.00;;
51995;SDS011;38010;53.264;6.592;2023-02-11T05:05:39;3.60;;;1.40;;
51995;SDS011;38010;53.264;6.592;2023-02-11T05:08:06;1.77;;;1.10;;
51995;SDS011;38010;53.264;6.592;2023-02-11T05:10:32;2.00;;;1.25;;
51995;SDS011;38010;53.264;6.592;2023-02-11T05:12:58;1.95;;;0.93;;
51995;SDS011;38010;53.264;6.592;2023-02-11T05:15:24;1.80;;;1.10;;
51995;SDS011;38010;53.264;6.592;2023-02-11T05:17:50;1.58;;;1.08;;
51995;SDS011;38010;53.264;6.592;2023-02-11T05:20:15;2.25;;;1.15;;
51995;SDS011;38010;53.264;6.592;2023-02-11T05:22:41;1.60;;;0.98;;
51995;SDS011;38010;53.264;6.592;2023-02-11T05:25:07;2.35;;;1.00;;
51995;SDS011;38010;53.264;6.592;2023-02-11T05:27:32;1.60;;;1.00;;
51995;SDS011;38010;53.264;6.592;2023-02-11T05:29:58;2.55;;;1.25;;
51995;SDS011;38010;53.264;6.592;2023-02-11T05:32:24;1.88;;;1.10;;
51995;SDS011;38010;53.264;6.592;2023-02-11T05:34:50;2.30;;;0.82;;
51995;SDS011;38010;53.264;6.592;2023-02-11T05:37:16;2.78;;;1.10;;
51995;SDS011;38010;53.264;6.592;2023-02-11T05:39:42;2.30;;;1.10;;
51995;SDS011;38010;53.264;6.592;2023-02-11T05:42:07;2.70;;;1.00;;
51995;SDS011;38010;53.264;6.592;2023-02-11T05:44:33;2.40;;;1.20;;
51995;SDS011;38010;53.264;6.592;2023-02-11T05:46:59;1.30;;;1.02;;
51995;SDS011;38010;53.264;6.592;2023-02-11T05:49:25;2.35;;;0.88;;
51995;SDS011;38010;53.264;6.592;2023-02-11T05:51:50;1.85;;;1.00;;
51995;SDS011;38010;53.264;6.592;2023-02-11T05:54:16;2.28;;;1.00;;
51995;SDS011;38010;53.264;6.592;2023-02-11T05:56:42;1.80;;;0.93;;
51995;SDS011;38010;53.264;6.592;2023-02-11T05:59:07;1.00;;;0.80;;
51995;SDS011;38010;53.264;6.592;2023-02-11T06:01:33;1.60;;;1.05;;
51995;SDS011;38010;53.264;6.592;2023-02-11T06:03:59;2.65;;;1.00;;
51995;SDS011;38010;53.264;6.592;2023-02-11T06:06:25;1.30;;;0.88;;
51995;SDS011;38010;53.264;6.592;2023-02-11T06:08:50;1.40;;;0.88;;
51995;SDS011;38010;53.264;6.592;2023-02-11T06:11:16;2.45;;;1.20;;
51995;SDS011;38010;53.264;6.592;2023-02-11T06:13:42;1.67;;;0.88;;
51995;SDS011;38010;53.264;6.592;2023-02-11T06:16:08;1.67;;;0.95;;
51995;SDS011;38010;53.264;6.592;2023-02-11T06:18:33;1.92;;;0.90;;
51995;SDS011;38010;53.264;6.592;2023-02-11T06:20:59;1.80;;;1.10;;
51995;SDS011;38010;53.264;6.592;2023-02-11T06:23:25;1.92;;;0.88;;
51995;SDS011;38010;53.264;6.592;2023-02-11T06:25:51;1.70;;;1.00;;
51995;SDS011;38010;53.264;6.592;2023-02-11T06:28:17;1.63;;;0.80;;
51995;SDS011;38010;53.264;6.592;2023-02-11T06:30:43;1.98;;;1.10;;
51995;SDS011;38010;53.264;6.592;2023-02-11T06:33:09;1.77;;;1.02;;
51995;SDS011;38010;53.264;6.592;2023-02-11T06:35:37;1.23;;;1.00;;
51995;SDS011;38010;53.264;6.592;2023-02-11T06:38:03;2.78;;;1.05;;
51995;SDS011;38010;53.264;6.592;2023-02-11T06:40:29;1.23;;;0.95;;
51995;SDS011;38010;53.264;6.592;2023-02-11T06:42:54;1.75;;;0.85;;
51995;SDS011;38010;53.264;6.592;2023-02-11T06:45:20;1.80;;;1.10;;
51995;SDS011;38010;53.264;6.592;2023-02-11T06:47:46;2.08;;;1.10;;
51995;SDS011;38010;53.264;6.592;2023-02-11T06:50:12;1.77;;;0.90;;
51995;SDS011;38010;53.264;6.592;2023-02-11T06:52:38;1.58;;;0.93;;
51995;SDS011;38010;53.264;6.592;2023-02-11T06:55:04;1.40;;;0.90;;
51995;SDS011;38010;53.264;6.592;2023-02-11T06:57:30;1.40;;;0.80;;
51995;SDS011;38010;53.264;6.592;2023-02-11T06:59:56;2.38;;;1.02;;
51995;SDS011;38010;53.264;6.592;2023-02-11T07:02:22;2.03;;;1.00;;
51995;SDS011;38010;53.264;6.592;2023-02-11T07:04:48;3.63;;;1.23;;
51995;SDS011;38010;53.264;6.592;2023-02-11T07:07:14;1.88;;;0.90;;
51995;SDS011;38010;53.264;6.592;2023-02-11T07:09:39;1.10;;;0.80;;
51995;SDS011;38010;53.264;6.592;2023-02-11T07:12:05;1.23;;;0.80;;
51995;SDS011;38010;53.264;6.592;2023-02-11T07:14:34;1.17;;;0.82;;
51995;SDS011;38010;53.264;6.592;2023-02-11T07:17:00;1.50;;;0.95;;
51995;SDS011;38010;53.264;6.592;2023-02-11T07:19:25;1.85;;;0.88;;
51995;SDS011;38010;53.264;6.592;2023-02-11T07:21:51;1.30;;;0.85;;
51995;SDS011;38010;53.264;6.592;2023-02-11T07:24:17;1.25;;;0.88;;
51995;SDS011;38010;53.264;6.592;2023-02-11T07:26:43;1.88;;;0.93;;
51995;SDS011;38010;53.264;6.592;2023-02-11T07:29:09;1.17;;;1.00;;
51995;SDS011;38010;53.264;6.592;2023-02-11T07:31:34;2.72;;;1.00;;
51995;SDS011;38010;53.264;6.592;2023-02-11T07:34:00;1.48;;;0.93;;
51995;SDS011;38010;53.264;6.592;2023-02-11T07:36:27;2.00;;;0.80;;
51995;SDS011;38010;53.264;6.592;2023-02-11T07:38:54;1.15;;;0.75;;
51995;SDS011;38010;53.264;6.592;2023-02-11T07:41:21;2.10;;;1.05;;
51995;SDS011;38010;53.264;6.592;2023-02-11T07:43:47;1.77;;;1.10;;
51995;SDS011;38010;53.264;6.592;2023-02-11T07:46:14;5.00;;;1.30;;
51995;SDS011;38010;53.264;6.592;2023-02-11T07:48:44;2.00;;;1.33;;
51995;SDS011;38010;53.264;6.592;2023-02-11T07:51:12;2.83;;;1.20;;
51995;SDS011;38010;53.264;6.592;2023-02-11T07:53:48;2.17;;;1.10;;
51995;SDS011;38010;53.264;6.592;2023-02-11T07:56:15;2.95;;;1.10;;
51995;SDS011;38010;53.264;6.592;2023-02-11T07:58:41;3.70;;;1.45;;
51995;SDS011;38010;53.264;6.592;2023-02-11T08:01:09;4.10;;;1.42;;
51995;SDS011;38010;53.264;6.592;2023-02-11T08:03:36;4.55;;;1.48;;
51995;SDS011;38010;53.264;6.592;2023-02-11T08:06:07;4.75;;;1.92;;
51995;SDS011;38010;53.264;6.592;2023-02-11T08:08:35;5.57;;;1.50;;
51995;SDS011;38010;53.264;6.592;2023-02-11T08:11:08;3.03;;;1.20;;
51995;SDS011;38010;53.264;6.592;2023-02-11T08:13:35;3.65;;;1.42;;
51995;SDS011;38010;53.264;6.592;2023-02-11T08:16:03;4.53;;;1.45;;
51995;SDS011;38010;53.264;6.592;2023-02-11T08:18:30;3.20;;;1.20;;
51995;SDS011;38010;53.264;6.592;2023-02-11T08:21:02;4.50;;;1.30;;
51995;SDS011;38010;53.264;6.592;2023-02-11T08:23:29;2.65;;;1.30;;
51995;SDS011;38010;53.264;6.592;2023-02-11T08:25:59;2.53;;;1.10;;
51995;SDS011;38010;53.264;6.592;2023-02-11T08:28:28;2.35;;;1.10;;
51995;SDS011;38010;53.264;6.592;2023-02-11T08:30:54;2.47;;;1.20;;
51995;SDS011;38010;53.264;6.592;2023-02-11T08:33:20;3.30;;;1.20;;
51995;SDS011;38010;53.264;6.592;2023-02-11T08:35:46;2.05;;;1.00;;
51995;SDS011;38010;53.264;6.592;2023-02-11T08:38:11;3.17;;;1.20;;
51995;SDS011;38010;53.264;6.592;2023-02-11T08:40:37;2.50;;;1.00;;
51995;SDS011;38010;53.264;6.592;2023-02-11T08:43:03;1.95;;;1.08;;
51995;SDS011;38010;53.264;6.592;2023-02-11T08:45:29;2.60;;;1.10;;
51995;SDS011;38010;53.264;6.592;2023-02-11T08:47:54;2.53;;;1.35;;
51995;SDS011;38010;53.264;6.592;2023-02-11T08:50:20;2.28;;;1.00;;
51995;SDS011;38010;53.264;6.592;2023-02-11T08:52:46;2.20;;;1.10;;
51995;SDS011;38010;53.264;6.592;2023-02-11T08:55:12;2.28;;;0.98;;
51995;SDS011;38010;53.264;6.592;2023-02-11T08:57:38;2.22;;;1.00;;
51995;SDS011;38010;53.264;6.592;2023-02-11T09:00:05;2.72;;;1.20;;
51995;SDS011;38010;53.264;6.592;2023-02-11T09:02:31;2.17;;;1.10;;
51995;SDS011;38010;53.264;6.592;2023-02-11T09:04:57;1.70;;;1.00;;
51995;SDS011;38010;53.264;6.592;2023-02-11T09:07:22;2.22;;;1.00;;
51995;SDS011;38010;53.264;6.592;2023-02-11T09:09:48;2.38;;;1.08;;
51995;SDS011;38010;53.264;6.592;2023-02-11T09:12:14;2.00;;;0.90;;
51995;SDS011;38010;53.264;6.592;2023-02-11T09:14:39;2.35;;;0.88;;
51995;SDS011;38010;53.264;6.592;2023-02-11T09:17:06;1.80;;;1.08;;
51995;SDS011;38010;53.264;6.592;2023-02-11T09:19:31;1.60;;;1.10;;
51995;SDS011;38010;53.264;6.592;2023-02-11T09:21:57;1.13;;;0.90;;
51995;SDS011;38010;53.264;6.592;2023-02-11T09:24:23;1.15;;;0.80;;
51995;SDS011;38010;53.264;6.592;2023-02-11T09:26:49;2.13;;;1.00;;
51995;SDS011;38010;53.264;6.592;2023-02-11T09:29:15;1.60;;;0.93;;
51995;SDS011;38010;53.264;6.592;2023-02-11T09:31:40;1.67;;;1.10;;
51995;SDS011;38010;53.264;6.592;2023-02-11T09:34:06;2.65;;;1.00;;
51995;SDS011;38010;53.264;6.592;2023-02-11T09:36:34;1.90;;;1.00;;
51995;SDS011;38010;53.264;6.592;2023-02-11T09:39:03;1.85;;;0.70;;
51995;SDS011;38010;53.264;6.592;2023-02-11T09:44:31;2.17;;;0.95;;
51995;SDS011;38010;53.264;6.592;2023-02-11T09:47:05;1.13;;;0.80;;
51995;SDS011;38010;53.264;6.592;2023-02-11T09:49:44;2.15;;;0.80;;
51995;SDS011;38010;53.264;6.592;2023-02-11T09:52:17;2.50;;;1.02;;
51995;SDS011;38010;53.264;6.592;2023-02-11T09:54:56;2.95;;;0.98;;
51995;SDS011;38010;53.264;6.592;2023-02-11T09:57:33;1.48;;;0.85;;
51995;SDS011;38010;53.264;6.592;2023-02-11T10:00:02;2.53;;;1.00;;
51995;SDS011;38010;53.264;6.592;2023-02-11T10:05:33;1.98;;;1.20;;
51995;SDS011;38010;53.264;6.592;2023-02-11T10:08:08;2.42;;;1.10;;
51995;SDS011;38010;53.264;6.592;2023-02-11T10:10:40;1.77;;;0.80;;
51995;SDS011;38010;53.264;6.592;2023-02-11T10:13:24;2.45;;;0.82;;
51995;SDS011;38010;53.264;6.592;2023-02-11T10:16:12;1.75;;;0.90;;
51995;SDS011;38010;53.264;6.592;2023-02-11T10:24:30;1.80;;;0.80;;
51995;SDS011;38010;53.264;6.592;2023-02-11T10:26:56;2.65;;;0.85;;
51995;SDS011;38010;53.264;6.592;2023-02-11T10:29:39;1.42;;;0.85;;
51995;SDS011;38010;53.264;6.592;2023-02-11T10:32:26;1.35;;;0.75;;
51995;SDS011;38010;53.264;6.592;2023-02-11T10:35:15;1.90;;;0.77;;
51995;SDS011;38010;53.264;6.592;2023-02-11T10:37:45;2.65;;;0.75;;
51995;SDS011;38010;53.264;6.592;2023-02-11T10:40:18;2.65;;;1.05;;
51995;SDS011;38010;53.264;6.592;2023-02-11T10:42:52;2.20;;;0.70;;
51995;SDS011;38010;53.264;6.592;2023-02-11T10:45:29;1.45;;;0.90;;
51995;SDS011;38010;53.264;6.592;2023-02-11T10:47:56;2.03;;;0.90;;
51995;SDS011;38010;53.264;6.592;2023-02-11T10:50:30;1.45;;;0.75;;
51995;SDS011;38010;53.264;6.592;2023-02-11T10:53:14;1.65;;;0.80;;
51995;SDS011;38010;53.264;6.592;2023-02-11T10:55:48;2.20;;;0.85;;
51995;SDS011;38010;53.264;6.592;2023-02-11T10:58:23;1.55;;;0.70;;
51995;SDS011;38010;53.264;6.592;2023-02-11T11:03:20;1.80;;;0.80;;
51995;SDS011;38010;53.264;6.592;2023-02-11T11:05:54;1.75;;;0.77;;
51995;SDS011;38010;53.264;6.592;2023-02-11T11:11:06;1.25;;;0.70;;
51995;SDS011;38010;53.264;6.592;2023-02-11T11:13:41;1.92;;;0.80;;
51995;SDS011;38010;53.264;6.592;2023-02-11T11:21:34;2.08;;;0.80;;
51995;SDS011;38010;53.264;6.592;2023-02-11T11:24:05;2.20;;;0.88;;
51995;SDS011;38010;53.264;6.592;2023-02-11T11:26:42;1.15;;;0.60;;
51995;SDS011;38010;53.264;6.592;2023-02-11T11:31:56;0.80;;;0.63;;
51995;SDS011;38010;53.264;6.592;2023-02-11T11:34:58;1.42;;;0.80;;
51995;SDS011;38010;53.264;6.592;2023-02-11T11:39:59;0.60;;;0.50;;
51995;SDS011;38010;53.264;6.592;2023-02-11T11:42:26;1.75;;;0.60;;
51995;SDS011;38010;53.264;6.592;2023-02-11T11:45:01;1.38;;;0.73;;
51995;SDS011;38010;53.264;6.592;2023-02-11T11:47:56;1.60;;;0.73;;
51995;SDS011;38010;53.264;6.592;2023-02-11T11:56:20;0.90;;;0.63;;
51995;SDS011;38010;53.264;6.592;2023-02-11T11:58:48;1.58;;;0.70;;
51995;SDS011;38010;53.264;6.592;2023-02-11T12:01:33;1.83;;;0.75;;
51995;SDS011;38010;53.264;6.592;2023-02-11T12:10:15;1.80;;;0.60;;
51995;SDS011;38010;53.264;6.592;2023-02-11T12:13:16;1.20;;;0.60;;
51995;SDS011;38010;53.264;6.592;2023-02-11T12:15:45;1.85;;;0.85;;
51995;SDS011;38010;53.264;6.592;2023-02-11T12:26:43;1.75;;;0.75;;
51995;SDS011;38010;53.264;6.592;2023-02-11T12:40:15;2.38;;;0.80;;
51995;SDS011;38010;53.264;6.592;2023-02-11T12:42:50;1.80;;;0.80;;
51995;SDS011;38010;53.264;6.592;2023-02-11T12:51:08;2.05;;;1.05;;
51995;SDS011;38010;53.264;6.592;2023-02-11T12:59:03;1.20;;;0.80;;
51995;SDS011;38010;53.264;6.592;2023-02-11T13:01:32;2.13;;;0.80;;
51995;SDS011;38010;53.264;6.592;2023-02-11T13:04:24;3.00;;;0.85;;
51995;SDS011;38010;53.264;6.592;2023-02-11T13:07:21;1.98;;;0.70;;
51995;SDS011;38010;53.264;6.592;2023-02-11T13:10:00;2.55;;;0.80;;
51995;SDS011;38010;53.264;6.592;2023-02-11T13:12:48;1.98;;;0.70;;
51995;SDS011;38010;53.264;6.592;2023-02-11T13:15:35;2.42;;;0.80;;
51995;SDS011;38010;53.264;6.592;2023-02-11T13:18:16;1.65;;;0.75;;
51995;SDS011;38010;53.264;6.592;2023-02-11T13:24:33;3.67;;;0.82;;
51995;SDS011;38010;53.264;6.592;2023-02-11T13:26:41;1.35;;;0.70;;
51995;SDS011;38010;53.264;6.592;2023-02-11T13:37:05;1.67;;;0.73;;
51995;SDS011;38010;53.264;6.592;2023-02-11T13:42:54;2.78;;;0.88;;
51995;SDS011;38010;53.264;6.592;2023-02-11T13:48:22;2.78;;;0.93;;
51995;SDS011;38010;53.264;6.592;2023-02-11T13:50:49;3.13;;;0.93;;
51995;SDS011;38010;53.264;6.592;2023-02-11T13:53:18;1.25;;;0.70;;
51995;SDS011;38010;53.264;6.592;2023-02-11T13:55:45;1.52;;;0.80;;
51995;SDS011;38010;53.264;6.592;2023-02-11T14:00:44;1.65;;;0.90;;
51995;SDS011;38010;53.264;6.592;2023-02-11T14:06:13;1.70;;;0.70;;
51995;SDS011;38010;53.264;6.592;2023-02-11T14:17:36;1.67;;;0.60;;
51995;SDS011;38010;53.264;6.592;2023-02-11T14:20:03;2.45;;;0.88;;
51995;SDS011;38010;53.264;6.592;2023-02-11T14:22:49;1.80;;;0.93;;
51995;SDS011;38010;53.264;6.592;2023-02-11T14:25:19;2.22;;;0.80;;
51995;SDS011;38010;53.264;6.592;2023-02-11T14:27:54;1.17;;;0.60;;
51995;SDS011;38010;53.264;6.592;2023-02-11T14:30:55;1.55;;;0.73;;
51995;SDS011;38010;53.264;6.592;2023-02-11T14:36:04;1.88;;;0.60;;
51995;SDS011;38010;53.264;6.592;2023-02-11T14:39:01;2.17;;;0.77;;
51995;SDS011;38010;53.264;6.592;2023-02-11T14:41:39;1.85;;;0.60;;
51995;SDS011;38010;53.264;6.592;2023-02-11T14:44:13;1.80;;;0.73;;
51995;SDS011;38010;53.264;6.592;2023-02-11T14:46:44;1.83;;;0.70;;
51995;SDS011;38010;53.264;6.592;2023-02-11T14:49:18;2.50;;;0.68;;
51995;SDS011;38010;53.264;6.592;2023-02-11T14:51:49;1.90;;;0.70;;
51995;SDS011;38010;53.264;6.592;2023-02-11T14:54:17;0.90;;;0.50;;
51995;SDS011;38010;53.264;6.592;2023-02-11T14:59:30;1.00;;;0.60;;
51995;SDS011;38010;53.264;6.592;2023-02-11T15:01:56;1.45;;;0.60;;
51995;SDS011;38010;53.264;6.592;2023-02-11T15:06:53;2.60;;;0.80;;
51995;SDS011;38010;53.264;6.592;2023-02-11T15:09:22;1.42;;;0.70;;
51995;SDS011;38010;53.264;6.592;2023-02-11T15:11:52;1.95;;;0.70;;
51995;SDS011;38010;53.264;6.592;2023-02-11T15:14:24;1.73;;;0.70;;
51995;SDS011;38010;53.264;6.592;2023-02-11T15:16:59;2.63;;;1.05;;
51995;SDS011;38010;53.264;6.592;2023-02-11T15:21:55;2.47;;;0.70;;
51995;SDS011;38010;53.264;6.592;2023-02-11T15:24:23;0.80;;;0.57;;
51995;SDS011;38010;53.264;6.592;2023-02-11T15:29:33;1.58;;;0.75;;
51995;SDS011;38010;53.264;6.592;2023-02-11T15:32:02;1.88;;;0.60;;
51995;SDS011;38010;53.264;6.592;2023-02-11T15:34:38;3.40;;;0.95;;
51995;SDS011;38010;53.264;6.592;2023-02-11T15:37:05;1.13;;;0.60;;
51995;SDS011;38010;53.264;6.592;2023-02-11T15:39:38;1.60;;;0.60;;
51995;SDS011;38010;53.264;6.592;2023-02-11T15:42:21;3.20;;;0.70;;
51995;SDS011;38010;53.264;6.592;2023-02-11T15:47:52;1.33;;;0.60;;
51995;SDS011;38010;53.264;6.592;2023-02-11T15:50:28;2.20;;;0.70;;
51995;SDS011;38010;53.264;6.592;2023-02-11T15:52:57;1.00;;;0.55;;
51995;SDS011;38010;53.264;6.592;2023-02-11T15:55:25;1.20;;;0.70;;
51995;SDS011;38010;53.264;6.592;2023-02-11T15:57:53;1.45;;;0.50;;
51995;SDS011;38010;53.264;6.592;2023-02-11T16:00:23;1.15;;;0.60;;
51995;SDS011;38010;53.264;6.592;2023-02-11T16:02:59;2.03;;;0.70;;
51995;SDS011;38010;53.264;6.592;2023-02-11T16:07:55;1.67;;;0.70;;
51995;SDS011;38010;53.264;6.592;2023-02-11T16:12:54;2.33;;;0.75;;
51995;SDS011;38010;53.264;6.592;2023-02-11T16:18:13;2.05;;;0.70;;
51995;SDS011;38010;53.264;6.592;2023-02-11T16:20:54;2.45;;;0.65;;
51995;SDS011;38010;53.264;6.592;2023-02-11T16:23:24;1.92;;;0.82;;
51995;SDS011;38010;53.264;6.592;2023-02-11T16:25:55;1.85;;;0.82;;
51995;SDS011;38010;53.264;6.592;2023-02-11T16:28:24;1.38;;;0.70;;
51995;SDS011;38010;53.264;6.592;2023-02-11T16:30:51;1.63;;;0.68;;
51995;SDS011;38010;53.264;6.592;2023-02-11T16:33:19;1.30;;;0.80;;
51995;SDS011;38010;53.264;6.592;2023-02-11T16:35:45;3.05;;;0.60;;
51995;SDS011;38010;53.264;6.592;2023-02-11T16:38:13;1.30;;;0.80;;
51995;SDS011;38010;53.264;6.592;2023-02-11T16:40:39;1.42;;;0.60;;
51995;SDS011;38010;53.264;6.592;2023-02-11T16:43:06;1.67;;;0.88;;
51995;SDS011;38010;53.264;6.592;2023-02-11T16:45:35;2.05;;;0.73;;
51995;SDS011;38010;53.264;6.592;2023-02-11T16:48:02;1.10;;;0.80;;
51995;SDS011;38010;53.264;6.592;2023-02-11T16:50:33;0.65;;;0.50;;
51995;SDS011;38010;53.264;6.592;2023-02-11T16:52:59;2.10;;;0.82;;
51995;SDS011;38010;53.264;6.592;2023-02-11T16:55:30;1.98;;;0.75;;
51995;SDS011;38010;53.264;6.592;2023-02-11T16:57:57;1.80;;;0.75;;
51995;SDS011;38010;53.264;6.592;2023-02-11T17:00:23;2.10;;;0.63;;
51995;SDS011;38010;53.264;6.592;2023-02-11T17:02:49;1.75;;;0.70;;
51995;SDS011;38010;53.264;6.592;2023-02-11T17:05:16;1.25;;;0.68;;
51995;SDS011;38010;53.264;6.592;2023-02-11T17:07:44;0.80;;;0.73;;
51995;SDS011;38010;53.264;6.592;2023-02-11T17:10:17;1.00;;;0.68;;
51995;SDS011;38010;53.264;6.592;2023-02-11T17:12:45;2.17;;;0.77;;
51995;SDS011;38010;53.264;6.592;2023-02-11T17:15:12;1.10;;;0.60;;
51995;SDS011;38010;53.264;6.592;2023-02-11T17:17:38;1.02;;;0.70;;
51995;SDS011;38010;53.264;6.592;2023-02-11T17:20:04;2.47;;;0.90;;
51995;SDS011;38010;53.264;6.592;2023-02-11T17:22:31;1.23;;;0.60;;
51995;SDS011;38010;53.264;6.592;2023-02-11T17:24:57;2.50;;;0.80;;
51995;SDS011;38010;53.264;6.592;2023-02-11T17:27:23;3.55;;;0.85;;
51995;SDS011;38010;53.264;6.592;2023-02-11T17:29:48;1.50;;;0.70;;
51995;SDS011;38010;53.264;6.592;2023-02-11T17:32:14;2.05;;;0.70;;
51995;SDS011;38010;53.264;6.592;2023-02-11T17:34:40;2.60;;;0.80;;
51995;SDS011;38010;53.264;6.592;2023-02-11T17:37:06;1.58;;;0.50;;
51995;SDS011;38010;53.264;6.592;2023-02-11T17:39:33;1.33;;;0.60;;
51995;SDS011;38010;53.264;6.592;2023-02-11T17:42:00;1.73;;;0.68;;
51995;SDS011;38010;53.264;6.592;2023-02-11T17:44:26;1.40;;;0.70;;